地図

経路データ

SID SEASON NUMBER BASIN SUBBASIN NAME ISO_TIME NATURE LAT LON WMO_WIND WMO_PRES WMO_AGENCY TRACK_TYPE DIST2LAND LANDFALL IFLAG USA_AGENCY USA_ATCF_ID USA_LAT USA_LON USA_RECORD USA_STATUS USA_WIND USA_PRES USA_SSHS USA_R34_NE USA_R34_SE USA_R34_SW USA_R34_NW USA_R50_NE USA_R50_SE USA_R50_SW USA_R50_NW USA_R64_NE USA_R64_SE USA_R64_SW USA_R64_NW USA_POCI USA_ROCI USA_RMW USA_EYE TOKYO_LAT TOKYO_LON TOKYO_GRADE TOKYO_WIND TOKYO_PRES TOKYO_R50_DIR TOKYO_R50_LONG TOKYO_R50_SHORT TOKYO_R30_DIR TOKYO_R30_LONG TOKYO_R30_SHORT TOKYO_LAND CMA_LAT CMA_LON CMA_CAT CMA_WIND CMA_PRES HKO_LAT HKO_LON HKO_CAT HKO_WIND HKO_PRES NEWDELHI_LAT NEWDELHI_LON NEWDELHI_GRADE NEWDELHI_WIND NEWDELHI_PRES NEWDELHI_CI NEWDELHI_DP NEWDELHI_POCI REUNION_LAT REUNION_LON REUNION_TYPE REUNION_WIND REUNION_PRES REUNION_TNUM REUNION_CI REUNION_RMW REUNION_R34_NE REUNION_R34_SE REUNION_R34_SW REUNION_R34_NW REUNION_R50_NE REUNION_R50_SE REUNION_R50_SW REUNION_R50_NW REUNION_R64_NE REUNION_R64_SE REUNION_R64_SW REUNION_R64_NW BOM_LAT BOM_LON BOM_TYPE BOM_WIND BOM_PRES BOM_TNUM BOM_CI BOM_RMW BOM_R34_NE BOM_R34_SE BOM_R34_SW BOM_R34_NW BOM_R50_NE BOM_R50_SE BOM_R50_SW BOM_R50_NW BOM_R64_NE BOM_R64_SE BOM_R64_SW BOM_R64_NW BOM_ROCI BOM_POCI BOM_EYE BOM_POS_METHOD BOM_PRES_METHOD NADI_LAT NADI_LON NADI_CAT NADI_WIND NADI_PRES WELLINGTON_LAT WELLINGTON_LON WELLINGTON_WIND WELLINGTON_PRES DS824_LAT DS824_LON DS824_STAGE DS824_WIND DS824_PRES TD9636_LAT TD9636_LON TD9636_STAGE TD9636_WIND TD9636_PRES TD9635_LAT TD9635_LON TD9635_WIND TD9635_PRES TD9635_ROCI NEUMANN_LAT NEUMANN_LON NEUMANN_CLASS NEUMANN_WIND NEUMANN_PRES MLC_LAT MLC_LON MLC_CLASS MLC_WIND MLC_PRES USA_GUST BOM_GUST BOM_GUST_PER REUNION_GUST REUNION_GUST_PER USA_SEAHGT USA_SEARAD_NE USA_SEARAD_SE USA_SEARAD_SW USA_SEARAD_NW STORM_SPEED STORM_DIR
1938243N16151 1938 44 WP MM NOT_NAMED 1938-08-30 21:00:00 NR 16.3000 150.900 main 2096 2096 __________O___ -1 16.3000 150.900 7 14 337
1938243N16151 1938 44 WP MM NOT_NAMED 1938-08-31 00:00:00 NR 16.9320 150.626 main 2157 2157 __________P___ -1 16.9320 150.626 7 14 336
1938243N16151 1938 44 WP MM NOT_NAMED 1938-08-31 03:00:00 NR 17.5611 150.310 main 2189 2110 __________P___ -1 17.5611 150.310 7 14 332
1938243N16151 1938 44 WP MM NOT_NAMED 1938-08-31 06:00:00 NR 18.1848 149.915 main 2110 2026 __________P___ -1 18.1848 149.915 7 15 325
1938243N16151 1938 44 WP MM NOT_NAMED 1938-08-31 09:00:00 NR 18.8000 149.400 main 2026 1939 __________O___ -1 18.8000 149.400 7 16 318
1938243N16151 1938 44 WP MM NOT_NAMED 1938-08-31 12:00:00 NR 19.3955 148.744 main 1934 1853 __________P___ -1 19.3955 148.744 7 17 311
1938243N16151 1938 44 WP MM NOT_NAMED 1938-08-31 15:00:00 NR 19.9276 148.004 main 1853 1784 __________P___ -1 19.9276 148.004 7 17 304
1938243N16151 1938 44 WP MM NOT_NAMED 1938-08-31 18:00:00 NR 20.3456 147.262 main 1784 1725 __________P___ -1 20.3456 147.262 7 15 297
1938243N16151 1938 44 WP MM NOT_NAMED 1938-08-31 21:00:00 NR 20.6000 146.600 main 1725 1711 __________O___ -1 20.6000 146.600 7 11 281
1938243N16151 1938 44 WP MM NOT_NAMED 1938-09-01 00:00:00 NR 20.5449 146.147 main 1718 1715 __________P___ -1 20.5449 146.147 7 8 252
1938243N16151 1938 44 WP MM NOT_NAMED 1938-09-01 03:00:00 NR 20.3475 145.784 main 1729 1723 __________P___ -1 20.3475 145.784 7 8 239
1938243N16151 1938 44 WP MM NOT_NAMED 1938-09-01 06:00:00 NR 20.1515 145.454 main 1730 1729 __________P___ -1 20.1515 145.454 7 7 249
1938243N16151 1938 44 WP MM NOT_NAMED 1938-09-01 09:00:00 NR 20.1000 145.100 main 1729 1683 __________O___ -1 20.1000 145.100 7 8 290
1938243N16151 1938 44 WP MM NOT_NAMED 1938-09-01 12:00:00 NR 20.4421 144.611 main 1683 1615 __________P___ -1 20.4421 144.611 7 13 311
1938243N16151 1938 44 WP MM NOT_NAMED 1938-09-01 15:00:00 NR 20.9334 144.090 main 1615 1543 __________P___ -1 20.9334 144.090 7 14 316
1938243N16151 1938 44 WP MM NOT_NAMED 1938-09-01 18:00:00 NR 21.4578 143.573 main 1533 1470 __________P___ -1 21.4578 143.573 7 13 316
1938243N16151 1938 44 WP MM NOT_NAMED 1938-09-01 21:00:00 NR 21.9000 143.100 main 1470 1436 __________O___ -1 21.9000 143.100 7 10 309
1938243N16151 1938 44 WP MM NOT_NAMED 1938-09-02 00:00:00 NR 22.0668 142.754 main 1436 1422 __________P___ -1 22.0668 142.754 7 6 292
1938243N16151 1938 44 WP MM NOT_NAMED 1938-09-02 03:00:00 NR 22.1431 142.454 main 1422 1398 __________P___ -1 22.1431 142.454 7 6 283
1938243N16151 1938 44 WP MM NOT_NAMED 1938-09-02 06:00:00 NR 22.1980 142.151 main 1398 1371 __________P___ -1 22.1980 142.151 7 6 285
1938243N16151 1938 44 WP MM NOT_NAMED 1938-09-02 09:00:00 NR 22.3000 141.800 main 1371 1320 __________O___ -1 22.3000 141.800 7 9 295
1938243N16151 1938 44 WP MM NOT_NAMED 1938-09-02 12:00:00 NR 22.5679 141.298 main 1320 1269 __________P___ -1 22.5679 141.298 7 11 301
1938243N16151 1938 44 WP MM NOT_NAMED 1938-09-02 15:00:00 NR 22.8865 140.745 main 1266 1216 __________P___ -1 22.8865 140.745 7 12 302
1938243N16151 1938 44 WP MM NOT_NAMED 1938-09-02 18:00:00 NR 23.2117 140.195 main 1216 1168 __________P___ -1 23.2117 140.195 7 11 303
1938243N16151 1938 44 WP MM NOT_NAMED 1938-09-02 21:00:00 NR 23.5000 139.700 main 1168 1148 __________O___ -1 23.5000 139.700 7 9 300
1938243N16151 1938 44 WP MM NOT_NAMED 1938-09-03 00:00:00 NR 23.6427 139.373 main 1148 1129 __________P___ -1 23.6427 139.373 7 6 295
1938243N16151 1938 44 WP MM NOT_NAMED 1938-09-03 03:00:00 NR 23.7527 139.103 main 1118 1099 __________P___ -1 23.7527 139.103 7 6 296
1938243N16151 1938 44 WP MM NOT_NAMED 1938-09-03 06:00:00 NR 23.8864 138.832 main 1099 1070 __________P___ -1 23.8864 138.832 7 7 302
1938243N16151 1938 44 WP MM NOT_NAMED 1938-09-03 09:00:00 NR 24.1000 138.500 main 1070 1005 __________O___ -1 24.1000 138.500 7 10 307
1938243N16151 1938 44 WP MM NOT_NAMED 1938-09-03 12:00:00 NR 24.4775 137.972 main 1005 933 __________P___ -1 24.4775 137.972 7 13 309
1938243N16151 1938 44 WP MM NOT_NAMED 1938-09-03 15:00:00 NR 24.9349 137.382 main 933 852 __________P___ -1 24.9349 137.382 7 14 312
1938243N16151 1938 44 WP MM NOT_NAMED 1938-09-03 18:00:00 NR 25.4245 136.800 main 852 777 __________P___ -1 25.4245 136.800 7 14 315
1938243N16151 1938 44 WP MM NOT_NAMED 1938-09-03 21:00:00 NR 25.9000 136.300 main 777 732 __________O___ -1 25.9000 136.300 7 11 315
1938243N16151 1938 44 WP MM NOT_NAMED 1938-09-04 00:00:00 NR 26.1697 135.974 main 732 703 __________P___ -1 26.1697 135.974 7 7 317
1938243N16151 1938 44 WP MM NOT_NAMED 1938-09-04 03:00:00 NR 26.4390 135.740 main 697 655 __________P___ -1 26.4390 135.740 7 7 330
1938243N16151 1938 44 WP MM NOT_NAMED 1938-09-04 06:00:00 NR 26.8139 135.561 main 655 590 __________P___ -1 26.8139 135.561 7 10 342
1938243N16151 1938 44 WP MM NOT_NAMED 1938-09-04 09:00:00 NR 27.4000 135.400 main 590 503 __________O___ -1 27.4000 135.400 7 16 348
1938243N16151 1938 44 WP MM NOT_NAMED 1938-09-04 12:00:00 NR 28.3923 135.175 main 495 404 __________P___ -1 28.3923 135.175 7 22 350
1938243N16151 1938 44 WP MM NOT_NAMED 1938-09-04 15:00:00 NR 29.5880 134.959 main 394 271 __________P___ -1 29.5880 134.959 7 25 352
1938243N16151 1938 44 WP MM NOT_NAMED 1938-09-04 18:00:00 NR 30.8397 134.763 main 271 149 __________P___ -1 30.8397 134.763 7 24 353
1938243N16151 1938 44 WP MM NOT_NAMED 1938-09-04 21:00:00 NR 32.0000 134.600 main 138 48 __________O___ -1 32.0000 134.600 7 20 351
1938243N16151 1938 44 WP MM NOT_NAMED 1938-09-05 00:00:00 NR 32.8033 134.411 main 48 9 __________P___ -1 32.8033 134.411 7 15 350
1938243N16151 1938 44 WP MM NOT_NAMED 1938-09-05 03:00:00 NR 33.5063 134.270 main 9 0 __________P___ -1 33.5063 134.270 7 14 353
1938243N16151 1938 44 WP MM NOT_NAMED 1938-09-05 06:00:00 NR 34.2062 134.218 main 0 0 __________P___ -1 34.2062 134.218 7 15 0
1938243N16151 1938 44 WP MM NOT_NAMED 1938-09-05 09:00:00 NR 35.0000 134.300 main 0 0 __________O___ -1 35.0000 134.300 7 19 8
1938243N16151 1938 44 WP MM NOT_NAMED 1938-09-05 12:00:00 NR 36.0775 134.528 main 55 55 __________P___ -1 36.0775 134.528 7 23 12
1938243N16151 1938 44 WP MM NOT_NAMED 1938-09-05 15:00:00 NR 37.2491 134.904 main 146 146 __________P___ -1 37.2491 134.904 7 25 17
1938243N16151 1938 44 WP MM NOT_NAMED 1938-09-05 18:00:00 NR 38.4212 135.404 main 165 165 __________P___ -1 38.4212 135.404 7 24 21
1938243N16151 1938 44 WP MM NOT_NAMED 1938-09-05 21:00:00 NR 39.5000 136.000 main 243 243 __________O___ -1 39.5000 136.000 7 21 23
1938243N16151 1938 44 WP MM NOT_NAMED 1938-09-06 00:00:00 NR 40.3388 136.470 main 274 247 __________P___ -1 40.3388 136.470 7 18 27
1938243N16151 1938 44 WP MM NOT_NAMED 1938-09-06 03:00:00 NR 41.0786 137.042 main 249 177 __________P___ -1 41.0786 137.042 7 18 35
1938243N16151 1938 44 WP MM NOT_NAMED 1938-09-06 06:00:00 NR 41.7800 137.817 main 173 81 __________P___ -1 41.7800 137.817 7 20 44
1938243N16151 1938 44 WP MM NOT_NAMED 1938-09-06 09:00:00 NR 42.5000 138.900 main 73 0 __________O___ -1 42.5000 138.900 7 27 53
1938243N16151 1938 44 WP MM NOT_NAMED 1938-09-06 12:00:00 NR 43.3810 140.702 main 13 0 __________P___ -1 43.3810 140.702 7 33 58
1938243N16151 1938 44 WP MM NOT_NAMED 1938-09-06 15:00:00 NR 44.2480 142.810 main 0 0 __________P___ -1 44.2480 142.810 7 34 61
1938243N16151 1938 44 WP MM NOT_NAMED 1938-09-06 18:00:00 NR 45.0347 144.870 main 92 92 __________P___ -1 45.0347 144.870 7 30 61
1938243N16151 1938 44 WP MM NOT_NAMED 1938-09-06 21:00:00 NR 45.7000 146.500 main 108 94 __________O___ -1 45.7000 146.500 7 20 57
1938243N16151 1938 44 WP MM NOT_NAMED 1938-09-07 00:00:00 NR 46.1293 147.301 main 100 100 __________P___ -1 46.1293 147.301 7 11 43
1938243N16151 1938 44 WP MM NOT_NAMED 1938-09-07 03:00:00 NR 46.4871 147.577 main 135 135 __________P___ -1 46.4871 147.577 7 8 9
1938243N16151 1938 44 WP MM NOT_NAMED 1938-09-07 06:00:00 NR 46.8775 147.464 main 180 180 __________P___ -1 46.8775 147.464 7 10 340
1938243N16151 1938 44 WP MM NOT_NAMED 1938-09-07 09:00:00 NR 47.4000 147.100 main 222 153 __________O___ -1 47.4000 147.100 7 15 338
1938243N16151 1938 44 WP MM NOT_NAMED 1938-09-07 12:00:00 NR 48.2752 146.619 main 143 96 __________P___ -1 48.2752 146.619 7 20 337
1938243N16151 1938 44 WP MM NOT_NAMED 1938-09-07 15:00:00 NR 49.2724 145.925 main 97 91 __________P___ -1 49.2724 145.925 7 22 335
1938243N16151 1938 44 WP MM NOT_NAMED 1938-09-07 18:00:00 NR 50.2573 145.188 main 94 70 __________P___ -1 50.2573 145.188 7 20 335
1938243N16151 1938 44 WP MM NOT_NAMED 1938-09-07 21:00:00 NR 51.1000 144.600 main 73 63 __________O___ -1 51.1000 144.600 7 15 339
1938243N16151 1938 44 WP MM NOT_NAMED 1938-09-08 00:00:00 NR 51.6334 144.351 main 69 65 __________P___ -1 51.6334 144.351 7 9 349
1938243N16151 1938 44 WP MM NOT_NAMED 1938-09-08 03:00:00 NR 52.0175 144.314 main 75 75 __________P___ -1 52.0175 144.314 7 7 5
1938243N16151 1938 44 WP MM NOT_NAMED 1938-09-08 06:00:00 NR 52.3181 144.471 main 81 80 __________P___ -1 52.3181 144.471 7 7 27
1938243N16151 1938 44 WP MM NOT_NAMED 1938-09-08 09:00:00 NR 52.6000 144.800 main 100 100 __________O___ -1 52.6000 144.800 7 8 36
1938243N16151 1938 44 WP MM NOT_NAMED 1938-09-08 12:00:00 NR 52.9962 145.276 main 133 133 __________P___ -1 52.9962 145.276 7 10 41
1938243N16151 1938 44 WP MM NOT_NAMED 1938-09-08 15:00:00 NR 53.3787 145.911 main 175 175 __________P___ -1 53.3787 145.911 7 11 48
1938243N16151 1938 44 WP MM NOT_NAMED 1938-09-08 18:00:00 NR 53.7214 146.617 main 227 227 __________P___ -1 53.7214 146.617 7 10 53
1938243N16151 1938 44 WP MM NOT_NAMED 1938-09-08 21:00:00 NR 54.0000 147.300 main 279 279 __________O___ -1 54.0000 147.300 7 8 53
1938243N16151 1938 44 WP MM NOT_NAMED 1938-09-09 00:00:00 NR 54.2178 147.745 main 304 304 __________P___ -1 54.2178 147.745 7 6 53
1938243N16151 1938 44 WP MM NOT_NAMED 1938-09-09 03:00:00 NR 54.3709 148.156 main 337 337 __________P___ -1 54.3709 148.156 7 6 64
1938243N16151 1938 44 WP MM NOT_NAMED 1938-09-09 06:00:00 NR 54.4638 148.614 main 363 363 __________P___ -1 54.4638 148.614 7 6 78
1938243N16151 1938 44 WP MM NOT_NAMED 1938-09-09 09:00:00 NR 54.5000 149.200 main 402 370 __________O___ -1 54.5000 149.200 7 8 89
1938243N16151 1938 44 WP MM NOT_NAMED 1938-09-09 12:00:00 NR 54.4825 149.973 main 364 316 __________P___ -1 54.4825 149.973 7 10 95
1938243N16151 1938 44 WP MM NOT_NAMED 1938-09-09 15:00:00 NR 54.4194 150.901 main 310 249 __________P___ -1 54.4194 150.901 7 11 98
1938243N16151 1938 44 WP MM NOT_NAMED 1938-09-09 18:00:00 NR 54.3212 151.928 main 249 188 __________P___ -1 54.3212 151.928 7 12 100
1938243N16151 1938 44 WP MM NOT_NAMED 1938-09-09 21:00:00 NR 54.2000 153.000 main 182 __________O___ -1 54.2000 153.000 7 13 101

デジタル台風データ・検索

IBTrACS Databaseについて

本データベースは、米国NOAAが公開する1842年以降の世界の熱帯低気圧のベストトラックデータアーカイブInternational Best Track Archive for Climate Stewardship (IBTrACS)を、ウェブで閲覧しやすい形式に変換したものです。

最終更新日:2021-12-06